Airport ID:KTSP
Update Time (UTC):22 OCT 18 03:13
Wind Speed (Knots):3
Wind Direction (Magnetic):290
Temperature (°C):12
Dew Point (°C):0
Humidity (%):42
Altimeter (inHg):30.03
Density Altitude (Feet):
Visibility (Miles):10
Clouds (Hundreds of feet):CLR
Present Weather:NO PRECIPITATION
METAR:METAR KTSP 220310Z AUTO 31003KT 10SM CLR 12/00 A3003 RMK AO2

The data displayed is for advisory purposes only and is not to be used for flight planning or operations.

This page is not automatically refreshed. Reload the page to see current data.